sensor_id;sensor_type;location;lat;lon;timestamp;P1;durP1;ratioP1;P2;durP2;ratioP2
56373;SDS011;58212;47.034;7.376;2022-11-02T04:57:29;6.72;;;3.70;;
56373;SDS011;58212;47.034;7.376;2022-11-02T04:59:59;7.80;;;3.70;;
56373;SDS011;58212;47.034;7.376;2022-11-02T05:02:28;6.03;;;3.95;;
56373;SDS011;58212;47.034;7.376;2022-11-02T05:04:56;7.32;;;3.83;;
56373;SDS011;58212;47.034;7.376;2022-11-02T05:07:24;4.65;;;3.63;;
56373;SDS011;58212;47.034;7.376;2022-11-02T05:09:51;6.68;;;3.83;;
56373;SDS011;58212;47.034;7.376;2022-11-02T05:12:18;7.68;;;4.82;;
56373;SDS011;58212;47.034;7.376;2022-11-02T05:14:48;6.47;;;4.50;;
56373;SDS011;58212;47.034;7.376;2022-11-02T05:17:15;8.02;;;4.43;;
56373;SDS011;58212;47.034;7.376;2022-11-02T05:19:43;8.10;;;4.68;;
56373;SDS011;58212;47.034;7.376;2022-11-02T05:22:09;5.40;;;4.20;;
56373;SDS011;58212;47.034;7.376;2022-11-02T05:24:37;5.55;;;3.88;;
56373;SDS011;58212;47.034;7.376;2022-11-02T05:27:06;5.70;;;3.47;;
56373;SDS011;58212;47.034;7.376;2022-11-02T05:29:37;6.32;;;3.42;;
56373;SDS011;58212;47.034;7.376;2022-11-02T05:32:05;5.40;;;3.85;;
56373;SDS011;58212;47.034;7.376;2022-11-02T05:34:36;5.93;;;3.63;;
56373;SDS011;58212;47.034;7.376;2022-11-02T05:37:04;5.13;;;3.75;;
56373;SDS011;58212;47.034;7.376;2022-11-02T05:39:31;6.63;;;3.92;;
56373;SDS011;58212;47.034;7.376;2022-11-02T05:42:00;7.00;;;3.72;;
56373;SDS011;58212;47.034;7.376;2022-11-02T05:44:28;5.07;;;3.63;;
56373;SDS011;58212;47.034;7.376;2022-11-02T05:46:55;6.88;;;4.30;;
56373;SDS011;58212;47.034;7.376;2022-11-02T05:49:24;7.38;;;3.97;;
56373;SDS011;58212;47.034;7.376;2022-11-02T05:51:51;5.60;;;4.05;;
56373;SDS011;58212;47.034;7.376;2022-11-02T05:54:18;5.70;;;3.85;;
56373;SDS011;58212;47.034;7.376;2022-11-02T05:56:45;5.70;;;3.10;;
56373;SDS011;58212;47.034;7.376;2022-11-02T05:59:12;7.43;;;3.55;;
56373;SDS011;58212;47.034;7.376;2022-11-02T06:01:39;5.57;;;3.20;;
56373;SDS011;58212;47.034;7.376;2022-11-02T06:04:06;6.80;;;3.90;;
56373;SDS011;58212;47.034;7.376;2022-11-02T06:06:35;21.35;;;12.18;;
56373;SDS011;58212;47.034;7.376;2022-11-02T06:09:02;20.08;;;15.00;;
56373;SDS011;58212;47.034;7.376;2022-11-02T06:11:29;11.68;;;7.95;;
56373;SDS011;58212;47.034;7.376;2022-11-02T06:14:00;11.57;;;6.65;;
56373;SDS011;58212;47.034;7.376;2022-11-02T06:16:28;8.98;;;5.90;;
56373;SDS011;58212;47.034;7.376;2022-11-02T06:18:55;8.32;;;4.40;;
56373;SDS011;58212;47.034;7.376;2022-11-02T06:21:22;6.22;;;3.33;;
56373;SDS011;58212;47.034;7.376;2022-11-02T06:23:51;4.40;;;2.78;;
56373;SDS011;58212;47.034;7.376;2022-11-02T06:26:18;7.63;;;2.70;;
56373;SDS011;58212;47.034;7.376;2022-11-02T06:28:45;6.00;;;2.58;;
56373;SDS011;58212;47.034;7.376;2022-11-02T06:31:13;7.53;;;2.83;;
56373;SDS011;58212;47.034;7.376;2022-11-02T06:33:42;4.45;;;2.30;;
56373;SDS011;58212;47.034;7.376;2022-11-02T06:36:09;6.90;;;2.25;;
56373;SDS011;58212;47.034;7.376;2022-11-02T06:41:34;4.47;;;2.20;;
56373;SDS011;58212;47.034;7.376;2022-11-02T06:44:03;4.15;;;1.95;;
56373;SDS011;58212;47.034;7.376;2022-11-02T06:46:30;4.60;;;2.17;;
56373;SDS011;58212;47.034;7.376;2022-11-02T06:48:57;3.53;;;1.88;;
56373;SDS011;58212;47.034;7.376;2022-11-02T06:51:24;4.82;;;2.30;;
56373;SDS011;58212;47.034;7.376;2022-11-02T06:53:51;6.47;;;2.30;;
56373;SDS011;58212;47.034;7.376;2022-11-02T06:56:20;6.50;;;2.38;;
56373;SDS011;58212;47.034;7.376;2022-11-02T06:58:47;5.28;;;2.30;;
56373;SDS011;58212;47.034;7.376;2022-11-02T07:01:14;7.70;;;2.30;;
56373;SDS011;58212;47.034;7.376;2022-11-02T07:03:42;3.53;;;2.10;;
56373;SDS011;58212;47.034;7.376;2022-11-02T07:06:09;4.32;;;2.45;;
56373;SDS011;58212;47.034;7.376;2022-11-02T07:08:36;3.55;;;1.67;;
56373;SDS011;58212;47.034;7.376;2022-11-02T07:11:03;4.10;;;2.15;;
56373;SDS011;58212;47.034;7.376;2022-11-02T07:13:32;4.40;;;1.90;;
56373;SDS011;58212;47.034;7.376;2022-11-02T07:16:00;4.35;;;1.90;;
56373;SDS011;58212;47.034;7.376;2022-11-02T07:18:28;3.03;;;2.10;;
56373;SDS011;58212;47.034;7.376;2022-11-02T07:20:57;6.05;;;2.30;;
56373;SDS011;58212;47.034;7.376;2022-11-02T07:23:24;5.65;;;2.15;;
56373;SDS011;58212;47.034;7.376;2022-11-02T07:25:51;3.83;;;2.03;;
56373;SDS011;58212;47.034;7.376;2022-11-02T07:28:21;3.72;;;1.83;;
56373;SDS011;58212;47.034;7.376;2022-11-02T07:30:52;4.30;;;1.95;;
56373;SDS011;58212;47.034;7.376;2022-11-02T07:33:21;3.90;;;1.98;;
56373;SDS011;58212;47.034;7.376;2022-11-02T07:35:48;5.25;;;1.65;;
56373;SDS011;58212;47.034;7.376;2022-11-02T07:38:15;4.50;;;1.88;;
56373;SDS011;58212;47.034;7.376;2022-11-02T07:40:47;4.03;;;1.77;;
56373;SDS011;58212;47.034;7.376;2022-11-02T07:43:15;3.22;;;1.70;;
56373;SDS011;58212;47.034;7.376;2022-11-02T07:45:53;5.05;;;1.90;;
56373;SDS011;58212;47.034;7.376;2022-11-02T07:48:20;4.63;;;1.98;;
56373;SDS011;58212;47.034;7.376;2022-11-02T07:50:47;5.25;;;2.00;;
56373;SDS011;58212;47.034;7.376;2022-11-02T07:53:14;4.55;;;1.50;;
56373;SDS011;58212;47.034;7.376;2022-11-02T07:55:41;5.28;;;1.77;;
56373;SDS011;58212;47.034;7.376;2022-11-02T07:58:09;8.55;;;2.25;;
56373;SDS011;58212;47.034;7.376;2022-11-02T08:00:38;8.45;;;2.05;;
56373;SDS011;58212;47.034;7.376;2022-11-02T08:03:08;4.20;;;1.60;;
56373;SDS011;58212;47.034;7.376;2022-11-02T08:05:37;6.55;;;1.83;;
56373;SDS011;58212;47.034;7.376;2022-11-02T08:08:06;4.05;;;1.30;;
56373;SDS011;58212;47.034;7.376;2022-11-02T08:10:39;6.72;;;1.70;;
56373;SDS011;58212;47.034;7.376;2022-11-02T08:13:07;4.43;;;1.70;;
56373;SDS011;58212;47.034;7.376;2022-11-02T08:15:35;7.90;;;2.20;;
56373;SDS011;58212;47.034;7.376;2022-11-02T08:18:02;4.05;;;1.70;;
56373;SDS011;58212;47.034;7.376;2022-11-02T08:20:32;5.68;;;2.80;;
56373;SDS011;58212;47.034;7.376;2022-11-02T08:23:00;5.40;;;3.40;;
56373;SDS011;58212;47.034;7.376;2022-11-02T08:25:28;6.70;;;3.47;;
56373;SDS011;58212;47.034;7.376;2022-11-02T08:27:57;7.57;;;3.28;;
56373;SDS011;58212;47.034;7.376;2022-11-02T08:30:24;4.70;;;2.95;;
56373;SDS011;58212;47.034;7.376;2022-11-02T08:32:51;7.55;;;3.30;;
56373;SDS011;58212;47.034;7.376;2022-11-02T08:35:19;7.38;;;3.75;;
56373;SDS011;58212;47.034;7.376;2022-11-02T08:37:52;7.13;;;3.15;;
56373;SDS011;58212;47.034;7.376;2022-11-02T08:40:20;5.72;;;3.33;;
56373;SDS011;58212;47.034;7.376;2022-11-02T08:42:47;5.25;;;2.75;;
56373;SDS011;58212;47.034;7.376;2022-11-02T08:45:14;8.40;;;3.47;;
56373;SDS011;58212;47.034;7.376;2022-11-02T08:47:42;6.25;;;2.90;;
56373;SDS011;58212;47.034;7.376;2022-11-02T08:50:10;4.10;;;3.25;;
56373;SDS011;58212;47.034;7.376;2022-11-02T08:52:37;3.92;;;2.40;;
56373;SDS011;58212;47.034;7.376;2022-11-02T08:55:07;5.70;;;3.00;;
56373;SDS011;58212;47.034;7.376;2022-11-02T08:57:43;5.03;;;2.70;;
56373;SDS011;58212;47.034;7.376;2022-11-02T09:00:13;4.38;;;2.70;;
56373;SDS011;58212;47.034;7.376;2022-11-02T09:02:42;8.68;;;2.80;;
56373;SDS011;58212;47.034;7.376;2022-11-02T09:05:09;5.18;;;3.10;;
56373;SDS011;58212;47.034;7.376;2022-11-02T09:07:36;4.35;;;2.33;;
56373;SDS011;58212;47.034;7.376;2022-11-02T09:10:04;5.40;;;2.70;;
56373;SDS011;58212;47.034;7.376;2022-11-02T09:12:33;4.63;;;2.35;;
56373;SDS011;58212;47.034;7.376;2022-11-02T09:15:01;5.97;;;2.55;;
56373;SDS011;58212;47.034;7.376;2022-11-02T09:17:29;6.43;;;2.25;;
56373;SDS011;58212;47.034;7.376;2022-11-02T09:19:56;4.85;;;2.75;;
56373;SDS011;58212;47.034;7.376;2022-11-02T09:22:23;6.63;;;2.42;;
56373;SDS011;58212;47.034;7.376;2022-11-02T09:24:51;6.53;;;2.50;;
56373;SDS011;58212;47.034;7.376;2022-11-02T09:27:18;6.88;;;2.92;;
56373;SDS011;58212;47.034;7.376;2022-11-02T09:29:46;6.65;;;2.88;;
56373;SDS011;58212;47.034;7.376;2022-11-02T09:32:13;7.18;;;2.70;;
56373;SDS011;58212;47.034;7.376;2022-11-02T09:34:43;5.32;;;2.60;;
56373;SDS011;58212;47.034;7.376;2022-11-02T09:37:11;10.43;;;3.30;;
56373;SDS011;58212;47.034;7.376;2022-11-02T09:39:38;7.13;;;2.72;;
56373;SDS011;58212;47.034;7.376;2022-11-02T09:42:08;5.45;;;2.67;;
56373;SDS011;58212;47.034;7.376;2022-11-02T09:44:41;10.73;;;3.28;;
56373;SDS011;58212;47.034;7.376;2022-11-02T09:47:15;10.18;;;2.20;;
56373;SDS011;58212;47.034;7.376;2022-11-02T09:49:43;4.68;;;1.73;;
56373;SDS011;58212;47.034;7.376;2022-11-02T09:52:12;5.07;;;1.63;;
56373;SDS011;58212;47.034;7.376;2022-11-02T09:54:46;3.40;;;1.55;;
56373;SDS011;58212;47.034;7.376;2022-11-02T09:57:19;5.20;;;1.60;;
56373;SDS011;58212;47.034;7.376;2022-11-02T09:59:54;4.40;;;1.60;;
56373;SDS011;58212;47.034;7.376;2022-11-02T10:02:24;4.32;;;1.48;;
56373;SDS011;58212;47.034;7.376;2022-11-02T10:05:13;4.45;;;1.58;;
56373;SDS011;58212;47.034;7.376;2022-11-02T10:07:55;5.70;;;1.55;;
56373;SDS011;58212;47.034;7.376;2022-11-02T10:10:31;6.90;;;1.95;;
56373;SDS011;58212;47.034;7.376;2022-11-02T10:13:04;7.47;;;1.90;;
56373;SDS011;58212;47.034;7.376;2022-11-02T10:15:44;3.83;;;1.42;;
56373;SDS011;58212;47.034;7.376;2022-11-02T10:18:16;6.07;;;1.55;;
56373;SDS011;58212;47.034;7.376;2022-11-02T10:20:47;3.05;;;1.40;;
56373;SDS011;58212;47.034;7.376;2022-11-02T10:23:18;8.93;;;1.77;;
56373;SDS011;58212;47.034;7.376;2022-11-02T10:25:50;6.57;;;1.40;;
56373;SDS011;58212;47.034;7.376;2022-11-02T10:28:19;6.60;;;3.08;;
56373;SDS011;58212;47.034;7.376;2022-11-02T10:30:53;8.65;;;3.00;;
56373;SDS011;58212;47.034;7.376;2022-11-02T10:33:21;5.13;;;1.50;;
56373;SDS011;58212;47.034;7.376;2022-11-02T10:35:54;4.68;;;1.60;;
56373;SDS011;58212;47.034;7.376;2022-11-02T10:38:34;37.33;;;4.55;;
56373;SDS011;58212;47.034;7.376;2022-11-02T10:41:13;8.80;;;1.75;;
56373;SDS011;58212;47.034;7.376;2022-11-02T10:43:58;4.38;;;1.95;;
56373;SDS011;58212;47.034;7.376;2022-11-02T10:46:41;4.53;;;2.00;;
56373;SDS011;58212;47.034;7.376;2022-11-02T10:49:20;4.57;;;1.77;;
56373;SDS011;58212;47.034;7.376;2022-11-02T10:52:04;13.75;;;2.47;;
56373;SDS011;58212;47.034;7.376;2022-11-02T10:54:32;4.05;;;1.75;;
56373;SDS011;58212;47.034;7.376;2022-11-02T10:56:59;4.38;;;1.70;;
56373;SDS011;58212;47.034;7.376;2022-11-02T10:59:36;3.60;;;1.80;;
56373;SDS011;58212;47.034;7.376;2022-11-02T11:02:09;5.90;;;2.13;;
56373;SDS011;58212;47.034;7.376;2022-11-02T11:07:21;4.82;;;1.95;;
56373;SDS011;58212;47.034;7.376;2022-11-02T11:09:53;6.15;;;1.75;;
56373;SDS011;58212;47.034;7.376;2022-11-02T11:12:25;5.53;;;1.83;;
56373;SDS011;58212;47.034;7.376;2022-11-02T11:14:57;5.10;;;1.90;;
56373;SDS011;58212;47.034;7.376;2022-11-02T11:17:28;7.70;;;2.30;;
56373;SDS011;58212;47.034;7.376;2022-11-02T11:19:58;4.75;;;1.98;;
56373;SDS011;58212;47.034;7.376;2022-11-02T11:22:28;4.47;;;1.73;;
56373;SDS011;58212;47.034;7.376;2022-11-02T11:27:47;5.43;;;1.95;;
56373;SDS011;58212;47.034;7.376;2022-11-02T11:30:22;3.50;;;1.73;;
56373;SDS011;58212;47.034;7.376;2022-11-02T11:32:52;3.13;;;1.50;;
56373;SDS011;58212;47.034;7.376;2022-11-02T11:35:20;3.65;;;1.55;;
56373;SDS011;58212;47.034;7.376;2022-11-02T11:37:52;4.13;;;1.70;;
56373;SDS011;58212;47.034;7.376;2022-11-02T11:40:22;7.20;;;1.90;;
56373;SDS011;58212;47.034;7.376;2022-11-02T11:42:51;4.45;;;1.92;;
56373;SDS011;58212;47.034;7.376;2022-11-02T11:45:21;3.13;;;1.65;;
56373;SDS011;58212;47.034;7.376;2022-11-02T11:47:50;7.65;;;1.80;;
56373;SDS011;58212;47.034;7.376;2022-11-02T11:50:21;7.03;;;1.60;;
56373;SDS011;58212;47.034;7.376;2022-11-02T11:53:06;3.70;;;1.50;;
56373;SDS011;58212;47.034;7.376;2022-11-02T11:55:36;3.97;;;2.20;;
56373;SDS011;58212;47.034;7.376;2022-11-02T11:58:17;3.70;;;1.40;;
56373;SDS011;58212;47.034;7.376;2022-11-02T12:01:01;6.65;;;2.00;;
56373;SDS011;58212;47.034;7.376;2022-11-02T12:03:32;19.60;;;3.20;;
56373;SDS011;58212;47.034;7.376;2022-11-02T12:06:19;5.53;;;1.75;;
56373;SDS011;58212;47.034;7.376;2022-11-02T12:08:53;6.55;;;1.90;;
56373;SDS011;58212;47.034;7.376;2022-11-02T12:11:38;6.30;;;2.58;;
56373;SDS011;58212;47.034;7.376;2022-11-02T12:14:18;6.68;;;2.47;;
56373;SDS011;58212;47.034;7.376;2022-11-02T12:17:00;4.57;;;1.58;;
56373;SDS011;58212;47.034;7.376;2022-11-02T12:19:45;3.45;;;1.85;;
56373;SDS011;58212;47.034;7.376;2022-11-02T12:22:29;5.68;;;1.58;;
56373;SDS011;58212;47.034;7.376;2022-11-02T12:28:24;4.70;;;2.40;;
56373;SDS011;58212;47.034;7.376;2022-11-02T12:31:05;5.60;;;1.85;;
56373;SDS011;58212;47.034;7.376;2022-11-02T12:33:47;6.28;;;1.38;;
56373;SDS011;58212;47.034;7.376;2022-11-02T12:36:43;4.35;;;1.77;;
56373;SDS011;58212;47.034;7.376;2022-11-02T12:39:20;6.22;;;1.80;;
56373;SDS011;58212;47.034;7.376;2022-11-02T12:41:59;4.55;;;1.67;;
56373;SDS011;58212;47.034;7.376;2022-11-02T12:44:42;3.90;;;1.92;;
56373;SDS011;58212;47.034;7.376;2022-11-02T12:47:23;6.78;;;1.88;;
56373;SDS011;58212;47.034;7.376;2022-11-02T12:50:02;25.38;;;5.13;;
56373;SDS011;58212;47.034;7.376;2022-11-02T12:52:42;6.15;;;2.30;;
56373;SDS011;58212;47.034;7.376;2022-11-02T12:55:20;6.90;;;1.70;;
56373;SDS011;58212;47.034;7.376;2022-11-02T12:57:53;5.70;;;3.15;;
56373;SDS011;58212;47.034;7.376;2022-11-02T13:00:23;5.85;;;1.83;;
56373;SDS011;58212;47.034;7.376;2022-11-02T13:02:56;8.88;;;2.28;;
56373;SDS011;58212;47.034;7.376;2022-11-02T13:05:29;4.38;;;1.63;;
56373;SDS011;58212;47.034;7.376;2022-11-02T13:08:05;4.40;;;1.60;;
56373;SDS011;58212;47.034;7.376;2022-11-02T13:10:42;8.55;;;1.90;;
56373;SDS011;58212;47.034;7.376;2022-11-02T13:13:13;6.65;;;2.75;;
56373;SDS011;58212;47.034;7.376;2022-11-02T13:15:56;5.00;;;1.80;;
56373;SDS011;58212;47.034;7.376;2022-11-02T13:18:26;6.75;;;2.55;;
56373;SDS011;58212;47.034;7.376;2022-11-02T13:20:56;6.22;;;1.85;;
56373;SDS011;58212;47.034;7.376;2022-11-02T13:23:30;4.90;;;1.70;;
56373;SDS011;58212;47.034;7.376;2022-11-02T13:26:02;9.27;;;2.20;;
56373;SDS011;58212;47.034;7.376;2022-11-02T13:28:33;7.88;;;2.00;;
56373;SDS011;58212;47.034;7.376;2022-11-02T13:31:10;7.90;;;2.00;;
56373;SDS011;58212;47.034;7.376;2022-11-02T13:33:42;6.00;;;1.70;;
56373;SDS011;58212;47.034;7.376;2022-11-02T13:36:12;7.47;;;1.95;;
56373;SDS011;58212;47.034;7.376;2022-11-02T13:38:43;8.00;;;1.92;;
56373;SDS011;58212;47.034;7.376;2022-11-02T13:41:20;13.45;;;1.90;;
56373;SDS011;58212;47.034;7.376;2022-11-02T13:44:11;5.55;;;1.65;;
56373;SDS011;58212;47.034;7.376;2022-11-02T13:46:57;4.95;;;1.65;;
56373;SDS011;58212;47.034;7.376;2022-11-02T13:49:39;8.57;;;1.77;;
56373;SDS011;58212;47.034;7.376;2022-11-02T13:52:09;8.55;;;1.70;;
56373;SDS011;58212;47.034;7.376;2022-11-02T13:54:39;5.50;;;1.60;;
56373;SDS011;58212;47.034;7.376;2022-11-02T13:57:19;9.52;;;2.20;;
56373;SDS011;58212;47.034;7.376;2022-11-02T13:59:56;6.93;;;1.65;;
56373;SDS011;58212;47.034;7.376;2022-11-02T14:02:24;6.88;;;1.80;;
56373;SDS011;58212;47.034;7.376;2022-11-02T14:04:56;6.30;;;1.77;;
56373;SDS011;58212;47.034;7.376;2022-11-02T14:07:24;4.78;;;1.65;;
56373;SDS011;58212;47.034;7.376;2022-11-02T14:09:56;8.88;;;2.13;;
56373;SDS011;58212;47.034;7.376;2022-11-02T14:12:38;8.00;;;1.60;;
56373;SDS011;58212;47.034;7.376;2022-11-02T14:18:08;9.85;;;2.17;;
56373;SDS011;58212;47.034;7.376;2022-11-02T14:20:39;6.50;;;1.88;;
56373;SDS011;58212;47.034;7.376;2022-11-02T14:26:03;16.90;;;2.75;;
56373;SDS011;58212;47.034;7.376;2022-11-02T14:28:31;7.88;;;2.22;;
56373;SDS011;58212;47.034;7.376;2022-11-02T14:34:16;7.45;;;1.75;;
56373;SDS011;58212;47.034;7.376;2022-11-02T14:37:04;7.88;;;1.92;;
56373;SDS011;58212;47.034;7.376;2022-11-02T14:39:46;19.02;;;2.53;;
56373;SDS011;58212;47.034;7.376;2022-11-02T14:42:31;11.18;;;2.17;;
56373;SDS011;58212;47.034;7.376;2022-11-02T14:45:19;5.28;;;1.77;;
56373;SDS011;58212;47.034;7.376;2022-11-02T14:48:03;12.27;;;1.90;;
56373;SDS011;58212;47.034;7.376;2022-11-02T14:50:35;4.85;;;1.50;;
56373;SDS011;58212;47.034;7.376;2022-11-02T14:53:02;9.35;;;1.65;;
56373;SDS011;58212;47.034;7.376;2022-11-02T14:55:33;4.88;;;1.48;;
56373;SDS011;58212;47.034;7.376;2022-11-02T14:58:04;3.53;;;1.58;;
56373;SDS011;58212;47.034;7.376;2022-11-02T15:00:53;6.50;;;1.50;;
56373;SDS011;58212;47.034;7.376;2022-11-02T15:03:27;4.18;;;1.52;;
56373;SDS011;58212;47.034;7.376;2022-11-02T15:05:59;4.78;;;1.85;;
56373;SDS011;58212;47.034;7.376;2022-11-02T15:08:29;3.97;;;1.50;;
56373;SDS011;58212;47.034;7.376;2022-11-02T15:14:18;6.88;;;1.50;;
56373;SDS011;58212;47.034;7.376;2022-11-02T15:20:19;5.43;;;1.95;;
56373;SDS011;58212;47.034;7.376;2022-11-02T15:22:55;5.90;;;2.10;;
56373;SDS011;58212;47.034;7.376;2022-11-02T15:25:29;15.68;;;3.75;;
56373;SDS011;58212;47.034;7.376;2022-11-02T15:28:03;5.95;;;1.90;;
56373;SDS011;58212;47.034;7.376;2022-11-02T15:30:38;3.65;;;1.90;;
56373;SDS011;58212;47.034;7.376;2022-11-02T15:33:10;9.05;;;1.90;;
56373;SDS011;58212;47.034;7.376;2022-11-02T15:35:44;4.40;;;1.92;;
56373;SDS011;58212;47.034;7.376;2022-11-02T15:38:13;6.93;;;1.70;;
56373;SDS011;58212;47.034;7.376;2022-11-02T15:40:45;7.47;;;1.70;;
56373;SDS011;58212;47.034;7.376;2022-11-02T15:43:23;5.60;;;1.85;;
56373;SDS011;58212;47.034;7.376;2022-11-02T15:46:19;5.25;;;1.73;;
56373;SDS011;58212;47.034;7.376;2022-11-02T15:49:10;7.68;;;2.03;;
56373;SDS011;58212;47.034;7.376;2022-11-02T15:51:48;4.82;;;2.00;;
56373;SDS011;58212;47.034;7.376;2022-11-02T15:54:25;4.95;;;1.90;;
56373;SDS011;58212;47.034;7.376;2022-11-02T15:57:10;3.60;;;2.05;;
56373;SDS011;58212;47.034;7.376;2022-11-02T15:59:58;5.93;;;3.38;;
56373;SDS011;58212;47.034;7.376;2022-11-02T16:02:35;6.75;;;2.35;;
56373;SDS011;58212;47.034;7.376;2022-11-02T16:05:04;4.15;;;1.83;;
56373;SDS011;58212;47.034;7.376;2022-11-02T16:07:32;4.65;;;1.83;;
56373;SDS011;58212;47.034;7.376;2022-11-02T16:10:11;3.17;;;1.67;;
56373;SDS011;58212;47.034;7.376;2022-11-02T16:12:56;3.90;;;1.85;;
56373;SDS011;58212;47.034;7.376;2022-11-02T16:15:24;8.25;;;2.20;;
56373;SDS011;58212;47.034;7.376;2022-11-02T16:17:53;3.47;;;2.13;;
56373;SDS011;58212;47.034;7.376;2022-11-02T16:20:23;7.03;;;2.38;;
56373;SDS011;58212;47.034;7.376;2022-11-02T16:22:53;6.05;;;2.03;;
56373;SDS011;58212;47.034;7.376;2022-11-02T16:28:10;8.23;;;2.28;;
56373;SDS011;58212;47.034;7.376;2022-11-02T16:30:43;5.45;;;2.88;;
56373;SDS011;58212;47.034;7.376;2022-11-02T16:33:25;6.43;;;3.03;;
56373;SDS011;58212;47.034;7.376;2022-11-02T16:35:56;4.15;;;2.33;;
56373;SDS011;58212;47.034;7.376;2022-11-02T16:38:24;5.78;;;2.42;;
56373;SDS011;58212;47.034;7.376;2022-11-02T16:40:52;3.33;;;2.08;;
56373;SDS011;58212;47.034;7.376;2022-11-02T16:43:20;8.85;;;1.80;;
56373;SDS011;58212;47.034;7.376;2022-11-02T16:45:49;4.43;;;1.55;;
56373;SDS011;58212;47.034;7.376;2022-11-02T16:48:20;5.35;;;1.40;;
56373;SDS011;58212;47.034;7.376;2022-11-02T16:51:02;4.20;;;1.48;;
56373;SDS011;58212;47.034;7.376;2022-11-02T16:53:32;8.20;;;2.20;;
56373;SDS011;58212;47.034;7.376;2022-11-02T16:56:13;6.47;;;2.90;;
56373;SDS011;58212;47.034;7.376;2022-11-02T16:58:54;6.72;;;2.78;;
56373;SDS011;58212;47.034;7.376;2022-11-02T17:01:25;4.65;;;2.20;;
56373;SDS011;58212;47.034;7.376;2022-11-02T17:03:55;4.72;;;1.80;;
56373;SDS011;58212;47.034;7.376;2022-11-02T17:06:25;4.88;;;2.28;;
56373;SDS011;58212;47.034;7.376;2022-11-02T17:08:53;5.15;;;2.33;;
56373;SDS011;58212;47.034;7.376;2022-11-02T17:11:21;3.88;;;1.60;;
56373;SDS011;58212;47.034;7.376;2022-11-02T17:13:49;3.88;;;2.30;;
56373;SDS011;58212;47.034;7.376;2022-11-02T17:16:18;4.97;;;2.50;;
56373;SDS011;58212;47.034;7.376;2022-11-02T17:18:46;6.18;;;2.75;;
56373;SDS011;58212;47.034;7.376;2022-11-02T17:21:22;4.20;;;1.90;;
56373;SDS011;58212;47.034;7.376;2022-11-02T17:23:57;6.22;;;2.28;;
56373;SDS011;58212;47.034;7.376;2022-11-02T17:26:34;7.47;;;3.92;;
56373;SDS011;58212;47.034;7.376;2022-11-02T17:31:59;8.95;;;5.43;;
56373;SDS011;58212;47.034;7.376;2022-11-02T17:34:29;6.47;;;4.10;;
56373;SDS011;58212;47.034;7.376;2022-11-02T17:36:57;4.88;;;3.30;;
56373;SDS011;58212;47.034;7.376;2022-11-02T17:39:25;6.97;;;3.75;;
56373;SDS011;58212;47.034;7.376;2022-11-02T17:41:52;10.30;;;4.47;;
56373;SDS011;58212;47.034;7.376;2022-11-02T17:44:38;7.97;;;4.18;;
56373;SDS011;58212;47.034;7.376;2022-11-02T17:47:10;8.80;;;4.10;;
56373;SDS011;58212;47.034;7.376;2022-11-02T17:49:38;8.82;;;5.20;;
56373;SDS011;58212;47.034;7.376;2022-11-02T17:52:07;7.38;;;4.10;;
56373;SDS011;58212;47.034;7.376;2022-11-02T17:54:38;9.75;;;3.22;;
56373;SDS011;58212;47.034;7.376;2022-11-02T17:57:07;5.70;;;2.78;;
56373;SDS011;58212;47.034;7.376;2022-11-02T17:59:38;12.05;;;3.22;;
56373;SDS011;58212;47.034;7.376;2022-11-02T18:02:08;5.60;;;4.70;;
56373;SDS011;58212;47.034;7.376;2022-11-02T18:04:37;6.00;;;4.00;;
56373;SDS011;58212;47.034;7.376;2022-11-02T18:07:06;5.30;;;2.28;;
56373;SDS011;58212;47.034;7.376;2022-11-02T18:09:33;4.25;;;2.60;;
56373;SDS011;58212;47.034;7.376;2022-11-02T18:12:01;6.28;;;2.70;;
56373;SDS011;58212;47.034;7.376;2022-11-02T18:14:28;5.50;;;3.53;;
56373;SDS011;58212;47.034;7.376;2022-11-02T18:16:56;11.05;;;5.80;;
56373;SDS011;58212;47.034;7.376;2022-11-02T18:19:23;9.02;;;3.30;;
56373;SDS011;58212;47.034;7.376;2022-11-02T18:21:50;7.60;;;2.13;;
56373;SDS011;58212;47.034;7.376;2022-11-02T18:24:18;4.93;;;1.75;;
56373;SDS011;58212;47.034;7.376;2022-11-02T18:26:46;3.88;;;1.98;;
56373;SDS011;58212;47.034;7.376;2022-11-02T18:29:13;7.63;;;1.98;;
56373;SDS011;58212;47.034;7.376;2022-11-02T18:31:41;3.15;;;1.58;;
56373;SDS011;58212;47.034;7.376;2022-11-02T18:34:08;6.95;;;1.90;;
56373;SDS011;58212;47.034;7.376;2022-11-02T18:36:35;4.53;;;1.70;;
56373;SDS011;58212;47.034;7.376;2022-11-02T18:39:03;5.90;;;1.88;;
56373;SDS011;58212;47.034;7.376;2022-11-02T18:41:32;6.15;;;2.15;;
56373;SDS011;58212;47.034;7.376;2022-11-02T18:44:02;8.57;;;2.00;;
56373;SDS011;58212;47.034;7.376;2022-11-02T18:46:40;3.97;;;1.63;;
56373;SDS011;58212;47.034;7.376;2022-11-02T18:49:07;3.47;;;1.55;;
56373;SDS011;58212;47.034;7.376;2022-11-02T18:51:35;6.28;;;2.78;;
56373;SDS011;58212;47.034;7.376;2022-11-02T18:54:07;6.22;;;3.13;;
56373;SDS011;58212;47.034;7.376;2022-11-02T18:56:35;6.50;;;2.60;;
56373;SDS011;58212;47.034;7.376;2022-11-02T18:59:05;7.75;;;2.53;;
56373;SDS011;58212;47.034;7.376;2022-11-02T19:01:32;3.67;;;1.70;;
56373;SDS011;58212;47.034;7.376;2022-11-02T19:04:00;3.42;;;1.77;;
56373;SDS011;58212;47.034;7.376;2022-11-02T19:06:28;3.70;;;1.85;;
56373;SDS011;58212;47.034;7.376;2022-11-02T19:09:16;2.95;;;1.80;;
56373;SDS011;58212;47.034;7.376;2022-11-02T19:11:47;3.30;;;1.70;;
56373;SDS011;58212;47.034;7.376;2022-11-02T19:14:20;3.90;;;1.60;;
56373;SDS011;58212;47.034;7.376;2022-11-02T19:16:49;4.15;;;1.55;;
56373;SDS011;58212;47.034;7.376;2022-11-02T19:19:17;5.78;;;1.70;;
56373;SDS011;58212;47.034;7.376;2022-11-02T19:21:45;2.90;;;1.80;;
56373;SDS011;58212;47.034;7.376;2022-11-02T19:24:13;5.18;;;1.63;;
56373;SDS011;58212;47.034;7.376;2022-11-02T19:26:43;5.82;;;1.83;;
56373;SDS011;58212;47.034;7.376;2022-11-02T19:29:12;6.28;;;1.88;;
56373;SDS011;58212;47.034;7.376;2022-11-02T19:31:39;6.72;;;2.42;;
56373;SDS011;58212;47.034;7.376;2022-11-02T19:34:06;5.95;;;2.00;;
56373;SDS011;58212;47.034;7.376;2022-11-02T19:36:33;5.85;;;1.95;;
56373;SDS011;58212;47.034;7.376;2022-11-02T19:39:01;5.22;;;1.90;;
56373;SDS011;58212;47.034;7.376;2022-11-02T19:41:29;7.28;;;2.10;;
56373;SDS011;58212;47.034;7.376;2022-11-02T19:43:56;4.13;;;2.65;;
56373;SDS011;58212;47.034;7.376;2022-11-02T19:46:25;3.72;;;1.98;;
56373;SDS011;58212;47.034;7.376;2022-11-02T19:48:54;6.18;;;2.38;;
56373;SDS011;58212;47.034;7.376;2022-11-02T19:51:22;4.75;;;2.60;;
56373;SDS011;58212;47.034;7.376;2022-11-02T19:53:51;6.30;;;2.65;;
56373;SDS011;58212;47.034;7.376;2022-11-02T19:56:20;4.80;;;2.55;;
56373;SDS011;58212;47.034;7.376;2022-11-02T19:58:49;6.47;;;2.25;;
56373;SDS011;58212;47.034;7.376;2022-11-02T20:01:20;5.13;;;2.53;;
56373;SDS011;58212;47.034;7.376;2022-11-02T20:03:51;6.03;;;2.17;;
56373;SDS011;58212;47.034;7.376;2022-11-02T20:06:20;5.57;;;2.05;;
56373;SDS011;58212;47.034;7.376;2022-11-02T20:08:48;3.38;;;2.00;;
56373;SDS011;58212;47.034;7.376;2022-11-02T20:11:16;6.00;;;2.20;;
56373;SDS011;58212;47.034;7.376;2022-11-02T20:13:43;5.32;;;2.33;;
56373;SDS011;58212;47.034;7.376;2022-11-02T20:16:15;6.75;;;2.63;;
56373;SDS011;58212;47.034;7.376;2022-11-02T20:18:44;6.93;;;2.83;;
56373;SDS011;58212;47.034;7.376;2022-11-02T20:21:15;7.65;;;3.00;;
56373;SDS011;58212;47.034;7.376;2022-11-02T20:23:43;4.63;;;2.63;;
56373;SDS011;58212;47.034;7.376;2022-11-02T20:26:12;6.93;;;3.13;;
56373;SDS011;58212;47.034;7.376;2022-11-02T20:28:41;5.45;;;3.15;;
56373;SDS011;58212;47.034;7.376;2022-11-02T20:31:14;8.25;;;2.90;;
56373;SDS011;58212;47.034;7.376;2022-11-02T20:33:43;5.25;;;2.83;;
56373;SDS011;58212;47.034;7.376;2022-11-02T20:36:11;5.13;;;2.63;;
56373;SDS011;58212;47.034;7.376;2022-11-02T20:38:42;5.85;;;2.80;;
56373;SDS011;58212;47.034;7.376;2022-11-02T20:41:10;7.20;;;2.95;;
56373;SDS011;58212;47.034;7.376;2022-11-02T20:43:39;3.53;;;2.40;;